Time;durP1;ratioP1;P1;durP2;ratioP2;P2;SDS_P1;SDS_P2;PMS_P1;PMS_P2;Temp;Humidity;BMP_temperature;BMP_pressure;BME280_temperature;BME280_humidity;BME280_pressure;Samples;Min_cycle;Max_cycle;Signal;HPM_P1;HPM_P2
2021/05/05 00:02:00;;;;;;;2.40;1.93;;;;;;;5.03;92.85;98740.72;5093388;28;20197;-72
2021/05/05 00:04:28;;;;;;;2.40;1.70;;;;;;;5.01;92.79;98724.03;5093698;28;20306;-72
2021/05/05 00:06:57;;;;;;;3.10;1.93;;;;;;;5.06;92.95;98727.19;5093603;28;20200;-73
2021/05/05 00:09:26;;;;;;;2.33;1.63;;;;;;;5.09;93.01;98726.94;5086067;28;20237;-72
2021/05/05 00:11:53;;;;;;;4.87;2.17;;;;;;;5.08;92.70;98734.06;5073355;28;20223;-72
2021/05/05 00:14:21;;;;;;;3.00;2.00;;;;;;;5.15;92.67;98735.28;5087246;28;20301;-72
2021/05/05 00:16:49;;;;;;;2.17;1.60;;;;;;;5.12;92.86;98740.84;5083571;28;20297;-72
2021/05/05 00:19:16;;;;;;;3.03;1.70;;;;;;;5.10;93.03;98718.84;5080617;28;20218;-72
2021/05/05 00:21:44;;;;;;;1.90;1.50;;;;;;;5.09;92.87;98722.47;5077529;28;20193;-72
2021/05/05 00:24:12;;;;;;;1.90;1.60;;;;;;;5.08;93.37;98714.59;5085080;28;20561;-73
2021/05/05 00:26:39;;;;;;;1.93;1.50;;;;;;;5.11;93.35;98709.03;5093513;28;20253;-73
2021/05/05 00:29:08;;;;;;;3.53;1.80;;;;;;;4.95;93.53;98675.69;5092389;28;20238;-72
2021/05/05 00:31:35;;;;;;;6.00;1.90;;;;;;;5.11;93.10;98688.63;5091637;28;20923;-72
2021/05/05 00:34:04;;;;;;;3.70;2.30;;;;;;;4.96;93.03;98665.88;5077458;28;20201;-72
2021/05/05 00:36:31;;;;;;;2.57;2.37;;;;;;;5.14;93.52;98688.38;5088524;28;20204;-71
2021/05/05 00:38:58;;;;;;;2.00;1.67;;;;;;;5.17;93.37;98685.47;5080182;28;20745;-72
2021/05/05 00:41:25;;;;;;;2.10;1.67;;;;;;;5.18;93.40;98671.19;5080906;28;20193;-72
2021/05/05 00:43:53;;;;;;;5.40;1.83;;;;;;;4.93;93.27;98605.81;5079336;28;20197;-72
2021/05/05 00:46:20;;;;;;;2.47;1.50;;;;;;;5.29;92.87;98665.88;5083235;28;20554;-72
2021/05/05 00:48:47;;;;;;;1.90;1.80;;;;;;;5.28;93.25;98674.84;5090591;28;20565;-72
2021/05/05 00:51:15;;;;;;;1.50;1.40;;;;;;;5.32;92.97;98669.25;5084370;28;20205;-72
2021/05/05 00:53:42;;;;;;;5.50;1.77;;;;;;;5.29;93.70;98675.69;5087781;28;20201;-72
2021/05/05 00:56:10;;;;;;;2.03;1.43;;;;;;;5.26;93.56;98644.84;5081077;28;20279;-72
2021/05/05 00:58:37;;;;;;;7.33;2.83;;;;;;;5.28;93.13;98642.91;5089770;28;20619;-73
2021/05/05 01:01:05;;;;;;;1.37;1.27;;;;;;;5.29;93.39;98638.44;5087184;28;20223;-73
2021/05/05 01:03:32;;;;;;;2.63;2.00;;;;;;;5.30;93.13;98640.97;5081322;28;20228;-73
2021/05/05 01:06:01;;;;;;;6.67;5.97;;;;;;;5.12;93.93;98620.28;5083338;28;20623;-73
2021/05/05 01:08:31;;;;;;;3.60;1.43;;;;;;;5.33;93.82;98642.53;5104409;27;20197;-73
2021/05/05 01:11:00;;;;;;;1.40;1.30;;;;;;;5.10;93.94;98585.84;5082239;28;20209;-73
2021/05/05 01:13:29;;;;;;;3.23;1.57;;;;;;;5.32;93.89;98619.56;5073503;28;20243;-73
2021/05/05 01:15:57;;;;;;;1.50;1.33;;;;;;;5.13;93.82;98585.59;5073830;28;20237;-73
2021/05/05 01:18:27;;;;;;;1.53;1.20;;;;;;;5.34;94.47;98614.09;5090054;28;20664;-73
2021/05/05 01:20:57;;;;;;;1.57;1.30;;;;;;;5.33;93.96;98613.25;5090149;28;20242;-72
2021/05/05 01:23:26;;;;;;;1.63;1.30;;;;;;;5.32;94.42;98610.72;5077098;28;20248;-72
2021/05/05 01:25:54;;;;;;;1.93;1.40;;;;;;;5.36;93.95;98615.66;5091476;28;20197;-73
2021/05/05 01:28:23;;;;;;;2.10;1.00;;;;;;;5.17;94.83;98575.53;5090781;28;20203;-72
2021/05/05 01:30:51;;;;;;;1.80;1.40;;;;;;;5.29;94.28;98593.19;5089259;28;20626;-73
2021/05/05 01:33:19;;;;;;;2.23;1.50;;;;;;;5.36;94.01;98593.53;5088666;28;20201;-72
2021/05/05 01:35:50;;;;;;;2.20;1.20;;;;;;;5.38;94.00;98610.22;5077609;28;20676;-73
2021/05/05 01:38:19;;;;;;;5.37;1.37;;;;;;;5.38;93.86;98588.94;5114373;27;20256;-72
2021/05/05 01:40:48;;;;;;;4.60;1.30;;;;;;;5.40;93.47;98590.50;5087316;28;20196;-72
2021/05/05 01:43:16;;;;;;;1.10;1.00;;;;;;;5.40;93.40;98592.31;5087952;28;20722;-72
2021/05/05 01:45:43;;;;;;;2.27;1.50;;;;;;;5.34;94.33;98592.81;5082435;28;20206;-72
2021/05/05 01:48:11;;;;;;;1.07;1.07;;;;;;;5.32;93.93;98584.13;5067504;28;20254;-73
2021/05/05 01:50:39;;;;;;;1.10;1.00;;;;;;;5.33;93.86;98569.84;5082787;28;20237;-72
2021/05/05 01:53:07;;;;;;;1.00;1.00;;;;;;;5.41;93.31;98583.34;5076358;28;20509;-73
2021/05/05 01:55:38;;;;;;;0.70;0.70;;;;;;;5.35;93.57;98573.22;5079565;28;20238;-73
2021/05/05 01:58:08;;;;;;;1.00;1.00;;;;;;;5.34;93.75;98559.06;5083761;28;20221;-72
2021/05/05 02:00:37;;;;;;;1.20;1.10;;;;;;;5.16;93.91;98531.28;5068431;28;20616;-72
2021/05/05 02:03:08;;;;;;;1.87;1.00;;;;;;;5.35;93.51;98559.91;5088291;28;20189;-72
2021/05/05 02:05:58;;;;;;;0.90;0.90;;;;;;;5.38;93.40;98562.31;5080718;28;20212;-72
2021/05/05 02:08:29;;;;;;;1.30;1.20;;;;;;;5.26;93.40;98538.41;5073338;28;20197;-72
2021/05/05 02:10:57;;;;;;;0.80;0.80;;;;;;;5.32;93.37;98552.19;5080206;28;20296;-72
2021/05/05 02:13:24;;;;;;;1.30;1.00;;;;;;;5.29;94.13;98538.16;5085070;28;20223;-72
2021/05/05 02:15:53;;;;;;;1.13;1.03;;;;;;;5.30;93.87;98529.22;5080063;28;20194;-72
2021/05/05 02:18:23;;;;;;;1.87;1.10;;;;;;;5.33;93.50;98536.09;5071442;28;20262;-72
2021/05/05 02:20:51;;;;;;;1.77;1.00;;;;;;;5.30;93.46;98531.88;5084641;28;20274;-72
2021/05/05 02:23:19;;;;;;;1.07;1.00;;;;;;;5.27;93.42;98518.81;5089401;28;20228;-72
2021/05/05 02:25:47;;;;;;;1.57;1.00;;;;;;;5.29;93.52;98521.34;5081290;28;20639;-73
2021/05/05 02:28:15;;;;;;;3.07;1.07;;;;;;;5.29;93.60;98524.00;5089212;28;20188;-72
2021/05/05 02:31:03;;;;;;;2.00;1.00;;;;;;;5.25;93.79;98520.75;5084052;28;20232;-73
2021/05/05 02:33:32;;;;;;;1.03;1.00;;;;;;;5.17;94.13;98496.56;5072354;28;20343;-72
2021/05/05 02:35:59;;;;;;;3.80;1.13;;;;;;;5.30;94.16;98499.09;5098247;28;20205;-72
2021/05/05 02:38:26;;;;;;;1.50;1.10;;;;;;;5.38;93.94;98498.44;5079407;28;20221;-72
2021/05/05 02:40:54;;;;;;;1.10;1.10;;;;;;;5.39;93.71;98500.13;5086715;28;20729;-72
2021/05/05 02:43:23;;;;;;;1.57;1.27;;;;;;;5.38;93.91;98499.28;5088590;28;20200;-72
2021/05/05 02:45:51;;;;;;;1.20;1.10;;;;;;;5.37;93.86;98496.75;5084367;28;20279;-72
2021/05/05 02:48:19;;;;;;;2.03;1.07;;;;;;;5.36;94.17;98498.56;5071341;28;20194;-72
2021/05/05 02:50:46;;;;;;;1.80;0.87;;;;;;;5.38;93.94;98498.44;5084279;28;20618;-72
2021/05/05 02:53:14;;;;;;;1.00;0.90;;;;;;;5.37;93.73;98492.28;5078795;28;20200;-73
2021/05/05 02:55:41;;;;;;;0.80;0.80;;;;;;;5.40;93.94;98484.03;5082833;28;20573;-72
2021/05/05 02:58:09;;;;;;;2.63;1.00;;;;;;;5.41;94.22;98492.88;5087739;28;20222;-73
2021/05/05 03:00:37;;;;;;;4.70;1.20;;;;;;;5.44;94.17;98476.66;5087754;28;20237;-72
2021/05/05 03:03:05;;;;;;;1.70;1.20;;;;;;;5.40;93.98;98477.88;5081123;28;20205;-72
2021/05/05 03:05:32;;;;;;;2.50;1.10;;;;;;;5.37;94.05;98476.31;5080222;28;20285;-72
2021/05/05 03:07:59;;;;;;;0.90;0.90;;;;;;;5.39;94.17;98479.69;5084423;28;20197;-72
2021/05/05 03:10:26;;;;;;;1.50;1.00;;;;;;;5.39;93.83;98462.88;5084813;28;20730;-73
2021/05/05 03:12:53;;;;;;;2.33;1.10;;;;;;;5.42;94.16;98474.13;5081858;28;20189;-72
2021/05/05 03:15:20;;;;;;;1.00;1.00;;;;;;;5.19;93.63;98432.59;5084711;28;20207;-72
2021/05/05 03:17:53;;;;;;;1.40;0.90;;;;;;;5.34;93.53;98470.41;5075434;28;20283;-72
2021/05/05 03:20:21;;;;;;;0.87;0.80;;;;;;;5.30;93.48;98469.81;5077903;28;20289;-73
2021/05/05 03:22:48;;;;;;;0.97;0.83;;;;;;;5.28;93.05;98469.09;5081811;28;20204;-73
2021/05/05 03:25:15;;;;;;;1.00;1.00;;;;;;;5.24;92.56;98460.53;5069810;28;20280;-72
2021/05/05 03:27:42;;;;;;;3.50;0.80;;;;;;;5.33;92.74;98458.06;5081733;28;20193;-72
2021/05/05 03:30:11;;;;;;;0.97;0.90;;;;;;;5.32;92.75;98461.72;5080170;28;20200;-73
2021/05/05 03:32:38;;;;;;;0.60;0.60;;;;;;;5.20;92.97;98423.66;5068643;28;20202;-73
2021/05/05 03:35:07;;;;;;;0.70;0.70;;;;;;;5.37;93.01;98459.50;5085553;28;20188;-73
2021/05/05 03:37:35;;;;;;;0.83;0.80;;;;;;;5.33;92.50;98444.78;5071529;28;20204;-73
2021/05/05 03:40:05;;;;;;;0.70;0.70;;;;;;;5.33;92.67;98452.75;5079561;28;20299;-73
2021/05/05 03:42:32;;;;;;;1.07;0.90;;;;;;;5.34;92.95;98449.13;5096055;28;20296;-73
2021/05/05 03:45:00;;;;;;;0.80;0.80;;;;;;;5.30;92.53;98438.72;5075822;28;20582;-73
2021/05/05 03:47:27;;;;;;;0.70;0.70;;;;;;;5.35;92.80;98450.81;5083608;28;20523;-73
2021/05/05 03:49:55;;;;;;;0.80;0.73;;;;;;;5.35;93.07;98445.50;5083248;28;20185;-73
2021/05/05 03:52:23;;;;;;;0.67;0.67;;;;;;;5.34;92.80;98443.78;5081745;28;20555;-73
2021/05/05 03:54:50;;;;;;;0.73;0.73;;;;;;;5.35;93.18;98429.53;5074163;28;20219;-73
2021/05/05 03:57:17;;;;;;;0.70;0.70;;;;;;;5.54;93.10;98442.97;5080599;28;20739;-73
2021/05/05 03:59:45;;;;;;;0.93;0.90;;;;;;;5.56;92.35;98439.22;5086440;28;20223;-73
2021/05/05 04:02:12;;;;;;;0.93;0.50;;;;;;;5.54;92.88;98435.84;5074915;28;20208;-73
2021/05/05 04:04:39;;;;;;;1.03;0.97;;;;;;;5.51;92.53;98437.88;5071709;28;20215;-74
2021/05/05 04:07:07;;;;;;;0.77;0.77;;;;;;;5.57;92.92;98440.91;5074499;28;20284;-74
2021/05/05 04:09:35;;;;;;;0.90;0.90;;;;;;;5.56;93.21;98441.88;5076966;28;20481;-73
2021/05/05 04:12:03;;;;;;;1.03;0.53;;;;;;;5.65;92.97;98437.59;5080548;28;20295;-73
2021/05/05 04:14:31;;;;;;;1.77;0.80;;;;;;;5.71;92.62;98439.72;5073668;28;20194;-73
2021/05/05 04:17:16;;;;;;;2.27;1.10;;;;;;;5.64;92.58;98435.91;5073282;28;20277;-73
2021/05/05 04:20:01;;;;;;;2.83;1.00;;;;;;;5.74;92.81;98442.13;5071141;28;20221;-74
2021/05/05 04:22:46;;;;;;;0.93;0.93;;;;;;;5.78;92.80;98432.03;5072589;28;20205;-73
2021/05/05 04:25:32;;;;;;;1.50;1.40;;;;;;;5.83;92.55;98436.03;5070287;28;20692;-73
2021/05/05 04:27:59;;;;;;;1.33;1.00;;;;;;;5.76;92.67;98429.50;5075026;28;20200;-73
2021/05/05 04:30:28;;;;;;;0.90;0.90;;;;;;;5.81;92.59;98437.94;5079148;28;20197;-73
2021/05/05 04:32:58;;;;;;;0.90;0.90;;;;;;;5.96;92.50;98430.50;5076358;28;20652;-73
2021/05/05 04:35:26;;;;;;;1.03;0.90;;;;;;;5.99;92.64;98434.72;5074601;28;20207;-73
2021/05/05 04:37:53;;;;;;;0.80;0.80;;;;;;;5.95;92.55;98435.97;5078405;28;20613;-73
2021/05/05 04:40:21;;;;;;;0.90;0.90;;;;;;;5.98;92.71;98433.88;5077981;28;20220;-75
2021/05/05 04:42:49;;;;;;;0.80;0.80;;;;;;;5.66;92.73;98395.84;5077385;28;20745;-75
2021/05/05 04:45:16;;;;;;;1999.90;881.20;;;;;;;5.87;93.13;98429.47;5077375;28;20198;-73
2021/05/05 04:47:43;;;;;;;6.33;3.80;;;;;;;5.93;92.65;98424.59;5077874;28;20203;-73
2021/05/05 04:50:12;;;;;;;1.77;1.67;;;;;;;5.93;92.84;98429.94;5083399;28;20198;-73
2021/05/05 04:52:40;;;;;;;1.93;1.83;;;;;;;5.91;93.33;98425.59;5080781;28;20212;-73
2021/05/05 04:55:08;;;;;;;1.20;1.07;;;;;;;5.95;93.05;98428.81;5074436;28;20201;-74
2021/05/05 04:57:36;;;;;;;1.30;1.20;;;;;;;6.02;93.48;98429.97;5075583;28;20902;-73
2021/05/05 05:00:06;;;;;;;2.47;2.27;;;;;;;6.10;93.18;98431.97;5079846;28;20312;-73
2021/05/05 05:02:33;;;;;;;2.83;2.57;;;;;;;6.06;93.23;98426.06;5080382;28;20235;-73
2021/05/05 05:05:01;;;;;;;0.90;0.90;;;;;;;6.02;93.50;98421.13;5079031;28;20320;-73
2021/05/05 05:07:28;;;;;;;1.07;1.07;;;;;;;5.80;93.33;98382.16;5076030;28;20575;-72
2021/05/05 05:09:55;;;;;;;4.73;4.13;;;;;;;6.06;93.42;98423.41;5082442;28;20230;-73
2021/05/05 05:12:22;;;;;;;1.10;1.10;;;;;;;6.01;93.23;98411.47;5080410;28;20202;-73
2021/05/05 05:14:49;;;;;;;1.03;1.03;;;;;;;6.10;93.56;98421.31;5082141;28;20566;-73
2021/05/05 05:17:18;;;;;;;1.33;1.23;;;;;;;6.11;93.82;98410.50;5080777;28;20655;-73
2021/05/05 05:19:46;;;;;;;0.80;0.80;;;;;;;6.17;93.10;98422.50;5079424;28;20517;-73
2021/05/05 05:22:13;;;;;;;0.73;0.73;;;;;;;6.08;93.30;98405.47;5074782;28;20198;-72
2021/05/05 05:24:41;;;;;;;0.80;0.80;;;;;;;6.16;92.96;98426.13;5082733;28;20734;-73
2021/05/05 05:27:08;;;;;;;5.53;1.00;;;;;;;6.05;93.35;98424.38;5081089;28;20202;-72
2021/05/05 05:29:35;;;;;;;2.10;0.70;;;;;;;5.98;93.31;98401.91;5080735;28;20661;-73
2021/05/05 05:32:03;;;;;;;0.80;0.80;;;;;;;6.13;93.62;98421.06;5076867;28;20201;-73
2021/05/05 05:34:31;;;;;;;0.77;0.77;;;;;;;5.87;92.98;98378.84;5079838;28;20244;-73
2021/05/05 05:36:58;;;;;;;4.67;3.73;;;;;;;6.19;93.35;98424.03;5079651;28;20202;-73
2021/05/05 05:39:25;;;;;;;1.40;1.30;;;;;;;6.14;93.22;98420.09;5075253;28;20233;-73
2021/05/05 05:41:54;;;;;;;0.80;0.63;;;;;;;6.14;93.15;98417.44;5074752;28;20214;-73
2021/05/05 05:44:22;;;;;;;1.50;1.40;;;;;;;6.15;93.52;98416.44;5080744;28;20198;-73
2021/05/05 05:46:49;;;;;;;1.97;1.77;;;;;;;6.19;93.50;98424.03;5079045;28;20285;-73
2021/05/05 05:49:16;;;;;;;0.90;0.90;;;;;;;6.22;93.37;98422.94;5077839;28;21038;-73
2021/05/05 05:51:44;;;;;;;4.10;1.23;;;;;;;5.73;92.56;98349.91;5080108;28;20193;-71
2021/05/05 05:54:11;;;;;;;0.80;0.80;;;;;;;6.16;93.39;98420.81;5084157;28;20197;-71
2021/05/05 05:56:38;;;;;;;0.70;0.70;;;;;;;6.13;92.97;98411.25;5071783;28;20216;-71
2021/05/05 05:59:05;;;;;;;0.70;0.70;;;;;;;6.16;93.05;98416.31;5078709;28;20219;-71
2021/05/05 06:01:32;;;;;;;1.10;1.00;;;;;;;6.23;92.84;98424.63;5081552;28;20687;-71
2021/05/05 06:04:00;;;;;;;1.60;1.00;;;;;;;6.24;92.66;98428.97;5087090;28;20192;-71
2021/05/05 06:06:27;;;;;;;1.27;1.00;;;;;;;6.07;92.95;98405.59;5074337;28;20228;-71
2021/05/05 06:08:55;;;;;;;0.97;0.97;;;;;;;6.23;92.61;98421.94;5070961;28;20226;-71
2021/05/05 06:11:22;;;;;;;0.90;0.90;;;;;;;6.30;92.86;98422.25;5080724;28;20220;-71
2021/05/05 06:13:49;;;;;;;1.20;1.10;;;;;;;6.30;92.72;98423.09;5080753;28;20197;-71
2021/05/05 06:16:18;;;;;;;1.23;1.17;;;;;;;6.28;92.60;98425.03;5079251;28;20461;-71
2021/05/05 06:18:46;;;;;;;0.90;0.90;;;;;;;6.32;92.96;98423.78;5081271;28;20236;-71
2021/05/05 06:21:13;;;;;;;1.20;1.10;;;;;;;6.19;93.14;98418.72;5075916;28;20746;-71
2021/05/05 06:23:41;;;;;;;1.30;1.20;;;;;;;6.27;93.32;98415.38;5082442;28;20209;-71
2021/05/05 06:26:09;;;;;;;3.53;1.30;;;;;;;6.33;92.90;98417.50;5086951;28;21422;-71
2021/05/05 06:28:36;;;;;;;1.77;1.27;;;;;;;6.43;93.33;98421.06;5087242;28;20208;-72
2021/05/05 06:31:03;;;;;;;1.87;1.37;;;;;;;6.39;93.21;98422.28;5080440;28;20218;-71
2021/05/05 06:33:31;;;;;;;1.63;1.53;;;;;;;6.38;93.15;98422.41;5086437;28;20197;-71
2021/05/05 06:35:58;;;;;;;1.90;1.50;;;;;;;6.48;93.37;98432.16;5082250;28;20209;-71
2021/05/05 06:38:25;;;;;;;1.53;1.20;;;;;;;6.52;92.92;98428.22;5083766;28;20282;-71
2021/05/05 06:40:52;;;;;;;3.50;1.47;;;;;;;6.54;92.70;98423.59;5088707;28;20738;-71
2021/05/05 06:43:20;;;;;;;3.90;1.60;;;;;;;6.56;92.79;98427.94;5082543;28;20195;-71
2021/05/05 06:45:48;;;;;;;4.70;1.83;;;;;;;6.57;92.76;98427.81;5088710;28;20202;-71
2021/05/05 06:48:17;;;;;;;1.70;1.60;;;;;;;6.56;93.15;98433.28;5081021;28;20241;-71
2021/05/05 06:50:44;;;;;;;1.67;1.57;;;;;;;6.53;93.10;98424.56;5085677;28;20201;-71
2021/05/05 06:53:11;;;;;;;2.90;1.70;;;;;;;6.47;92.71;98425.13;5087458;28;20206;-71
2021/05/05 06:55:43;;;;;;;5.70;1.57;;;;;;;6.58;93.07;98431.31;5083197;28;20201;-71
2021/05/05 06:58:10;;;;;;;1.30;1.20;;;;;;;6.66;92.88;98434.97;5082785;28;20603;-70
2021/05/05 07:00:38;;;;;;;3.93;2.33;;;;;;;6.71;92.53;98435.41;5085399;28;20907;-71
2021/05/05 07:03:05;;;;;;;4.50;2.73;;;;;;;6.78;92.25;98435.72;5072381;28;20564;-71
2021/05/05 07:05:33;;;;;;;9.33;4.50;;;;;;;6.82;92.20;98431.81;5070559;28;20702;-70
2021/05/05 07:08:00;;;;;;;8.30;4.17;;;;;;;6.83;92.11;98442.34;5072434;28;20203;-71
2021/05/05 07:10:27;;;;;;;8.73;5.87;;;;;;;6.82;92.09;98432.66;5067907;28;20765;-71
2021/05/05 07:12:54;;;;;;;14.57;6.93;;;;;;;6.89;91.98;98440.94;5073701;28;20198;-71
2021/05/05 07:15:21;;;;;;;16.77;6.53;;;;;;;6.87;92.19;98436.72;5079337;28;20572;-71
2021/05/05 07:17:49;;;;;;;9.87;5.13;;;;;;;6.83;91.80;98437.00;5066301;28;20662;-71
2021/05/05 07:20:17;;;;;;;12.63;4.90;;;;;;;6.98;92.27;98439.25;5081149;28;20222;-71
2021/05/05 07:22:44;;;;;;;6.20;3.90;;;;;;;6.96;91.78;98442.06;5069937;28;20208;-71
2021/05/05 07:25:11;;;;;;;7.13;3.53;;;;;;;6.99;91.52;98440.94;5079859;28;20566;-71
2021/05/05 07:27:39;;;;;;;8.43;3.87;;;;;;;7.06;91.85;98440.28;5080128;28;20205;-71
2021/05/05 07:30:07;;;;;;;8.10;3.17;;;;;;;7.03;92.12;98443.19;5085974;28;20189;-71
2021/05/05 07:32:34;;;;;;;6.10;3.50;;;;;;;7.10;92.17;98449.69;5077966;28;20194;-71
2021/05/05 07:35:07;;;;;;;8.80;4.00;;;;;;;7.22;92.13;98452.22;5079969;28;20226;-71
2021/05/05 07:37:54;;;;;;;7.83;4.20;;;;;;;7.30;91.66;98455.03;5080912;28;20203;-71
2021/05/05 07:46:06;;;;;;;16.93;8.93;;;;;;;7.58;91.80;98451.50;5069459;28;20228;-71
2021/05/05 07:48:38;;;;;;;22.27;10.27;;;;;;;7.79;91.88;98452.19;5081563;28;20202;-71
2021/05/05 07:51:07;;;;;;;9.90;4.13;;;;;;;7.76;92.14;98428.44;5084873;28;20200;-71
2021/05/05 07:53:33;;;;;;;13.07;6.97;;;;;;;8.02;91.94;98441.19;5079119;28;20682;-71
2021/05/05 07:56:00;;;;;;;15.77;5.80;;;;;;;8.23;92.27;98443.63;5081969;28;20202;-71
2021/05/05 07:58:27;;;;;;;4.70;2.30;;;;;;;8.26;91.47;98444.16;5079027;28;20196;-70
2021/05/05 08:00:53;;;;;;;3.53;2.07;;;;;;;8.58;91.96;98448.31;5085675;28;20210;-71
2021/05/05 08:03:21;;;;;;;5.70;2.50;;;;;;;8.80;91.06;98452.41;5074964;28;20194;-71
2021/05/05 08:05:48;;;;;;;8.63;2.50;;;;;;;8.99;89.77;98453.16;5072676;28;20231;-71
2021/05/05 08:08:17;;;;;;;3.83;2.20;;;;;;;8.99;86.77;98441.59;5073576;28;20198;-71
2021/05/05 08:10:44;;;;;;;2.83;2.20;;;;;;;9.17;86.83;98447.81;5081528;28;20224;-71
2021/05/05 08:13:11;;;;;;;10.17;5.20;;;;;;;9.46;89.10;98444.91;5081771;28;20209;-71
2021/05/05 08:15:39;;;;;;;5.03;2.77;;;;;;;9.54;87.83;98442.31;5079274;28;20200;-71
2021/05/05 08:18:07;;;;;;;7.10;4.47;;;;;;;9.54;86.29;98442.31;5085003;28;20204;-71
2021/05/05 08:20:35;;;;;;;2.57;1.73;;;;;;;9.55;84.89;98445.84;5080480;28;20230;-71
2021/05/05 08:23:04;;;;;;;2.40;1.67;;;;;;;9.30;83.32;98417.97;5082040;28;20208;-69
2021/05/05 08:25:32;;;;;;;3.87;1.27;;;;;;;9.40;83.28;98444.69;5076240;28;20211;-69
2021/05/05 08:28:00;;;;;;;1.50;1.40;;;;;;;9.35;83.59;98455.84;5076854;28;20215;-69
2021/05/05 08:30:27;;;;;;;4.23;1.33;;;;;;;9.19;83.00;98443.16;5076915;28;20191;-70
2021/05/05 08:32:55;;;;;;;1.30;1.20;;;;;;;9.23;82.57;98455.25;5082333;28;20731;-70
2021/05/05 08:35:22;;;;;;;1.13;1.03;;;;;;;9.17;83.70;98461.19;5085347;28;20200;-70
2021/05/05 08:37:51;;;;;;;3.20;1.40;;;;;;;9.18;83.57;98460.19;5074016;28;20275;-70
2021/05/05 08:40:20;;;;;;;1.50;1.30;;;;;;;8.86;83.96;98412.50;5075659;28;20319;-70
2021/05/05 08:42:49;;;;;;;5.37;2.00;;;;;;;9.21;84.29;98461.75;5081208;28;20223;-70
2021/05/05 08:45:18;;;;;;;1.93;1.60;;;;;;;9.26;84.40;98460.31;5080199;28;20206;-70
2021/05/05 08:47:47;;;;;;;4.90;1.57;;;;;;;9.05;84.14;98467.75;5079375;28;20204;-70
2021/05/05 08:50:16;;;;;;;6.93;1.87;;;;;;;8.65;84.84;98476.16;5089965;28;20250;-71
2021/05/05 08:52:44;;;;;;;4.10;1.50;;;;;;;8.40;85.58;98483.84;5074598;28;20243;-71
2021/05/05 08:55:17;;;;;;;3.70;1.20;;;;;;;8.32;86.54;98481.06;5083085;28;20195;-71
2021/05/05 08:57:44;;;;;;;2.10;1.23;;;;;;;8.14;86.83;98485.44;5083855;28;20228;-72
2021/05/05 09:00:15;;;;;;;4.67;1.20;;;;;;;8.04;87.93;98496.16;5082618;28;20219;-72
2021/05/05 09:02:42;;;;;;;2.20;1.60;;;;;;;7.97;88.42;98491.56;5072102;28;20220;-71
2021/05/05 09:05:45;;;;;;;3.13;1.63;;;;;;;7.97;88.77;98488.88;5082788;28;20665;-71
2021/05/05 09:08:14;;;;;;;3.90;1.50;;;;;;;7.92;88.85;98483.94;5084129;28;20190;-72
2021/05/05 09:10:54;;;;;;;3.37;1.33;;;;;;;7.99;89.61;98484.22;5069132;28;20307;-72
2021/05/05 09:13:47;;;;;;;2.57;1.60;;;;;;;8.11;89.86;98488.41;5080330;28;20229;-70
2021/05/05 09:16:17;;;;;;;3.87;1.90;;;;;;;8.21;89.36;98485.72;5079924;28;20279;-70
2021/05/05 09:18:59;;;;;;;1.80;1.37;;;;;;;8.27;89.44;98480.66;5081880;28;20306;-71
2021/05/05 09:21:33;;;;;;;2.17;1.50;;;;;;;8.39;89.55;98478.66;5087766;28;20602;-72
2021/05/05 09:24:21;;;;;;;1.50;1.40;;;;;;;8.37;87.72;98486.00;5078573;28;20449;-72
2021/05/05 09:26:49;;;;;;;2.13;1.93;;;;;;;8.36;87.64;98484.31;5086193;28;20703;-72
2021/05/05 09:29:17;;;;;;;4.50;1.80;;;;;;;8.44;88.67;98479.06;5080296;28;20201;-72
2021/05/05 09:31:45;;;;;;;4.13;1.50;;;;;;;8.45;87.43;98474.56;5074534;28;20281;-71
2021/05/05 09:34:13;;;;;;;2.63;1.87;;;;;;;8.57;88.53;98490.28;5079242;28;20683;-72
2021/05/05 09:36:42;;;;;;;2.27;1.37;;;;;;;8.55;87.31;98488.72;5074352;28;20211;-72
2021/05/05 09:39:10;;;;;;;2.77;1.40;;;;;;;8.59;86.74;98487.47;5078031;28;20566;-72
2021/05/05 09:41:45;;;;;;;1.97;1.27;;;;;;;8.61;86.83;98490.84;5088051;28;20201;-72
2021/05/05 09:44:13;;;;;;;3.37;1.70;;;;;;;8.65;86.31;98497.56;5120915;27;20204;-72
2021/05/05 09:46:42;;;;;;;1.03;0.97;;;;;;;8.45;85.50;98479.91;5076745;28;20374;-69
2021/05/05 09:49:20;;;;;;;1.57;1.37;;;;;;;8.40;84.78;98488.38;5073001;28;20289;-71
2021/05/05 09:51:50;;;;;;;3.40;1.30;;;;;;;8.43;84.73;98498.78;5085195;28;20229;-72
2021/05/05 09:54:32;;;;;;;2.80;1.40;;;;;;;8.42;85.00;98490.88;5077316;28;20251;-72
2021/05/05 09:57:14;;;;;;;2.57;1.37;;;;;;;8.53;84.63;98490.69;5085435;28;20207;-72
2021/05/05 09:59:57;;;;;;;4.00;1.43;;;;;;;8.67;84.78;98495.59;5079580;28;20218;-72
2021/05/05 10:02:25;;;;;;;2.27;1.23;;;;;;;8.73;84.17;98503.00;5087393;28;20200;-71
2021/05/05 10:05:03;;;;;;;2.57;1.30;;;;;;;8.89;85.10;98492.53;5090568;28;20225;-72
2021/05/05 10:07:48;;;;;;;1.17;1.10;;;;;;;8.97;85.00;98510.50;5074437;28;20536;-70
2021/05/05 10:10:15;;;;;;;1.77;1.20;;;;;;;8.88;83.71;98504.22;5075328;28;20399;-71
2021/05/05 10:12:42;;;;;;;2.40;1.10;;;;;;;8.74;81.62;98504.69;5080411;28;20211;-71
2021/05/05 10:15:12;;;;;;;1.73;1.33;;;;;;;8.74;82.47;98496.66;5075213;28;20754;-71
2021/05/05 10:17:39;;;;;;;2.73;1.10;;;;;;;8.87;84.37;98505.19;5076885;28;20197;-71
2021/05/05 10:20:09;;;;;;;2.30;1.70;;;;;;;8.95;83.90;98515.19;5074157;28;20599;-71
2021/05/05 10:22:37;;;;;;;2.00;1.00;;;;;;;8.98;82.78;98510.38;5075516;28;20204;-71
2021/05/05 10:25:06;;;;;;;1.33;1.00;;;;;;;9.09;83.46;98505.78;5071521;28;20663;-72
2021/05/05 10:27:33;;;;;;;4.03;1.17;;;;;;;9.08;81.58;98509.47;5069249;28;20566;-71
2021/05/05 10:30:01;;;;;;;3.63;1.20;;;;;;;8.90;82.36;98488.84;5084372;28;20188;-71
2021/05/05 10:32:32;;;;;;;1.83;1.10;;;;;;;9.01;81.50;98515.41;5086182;28;20639;-71
2021/05/05 10:35:00;;;;;;;5.60;1.10;;;;;;;8.95;81.05;98518.69;5085334;28;20291;-72
2021/05/05 10:37:45;;;;;;;1.20;1.10;;;;;;;8.96;82.28;98522.22;5068985;28;20203;-71
2021/05/05 10:40:21;;;;;;;1.13;1.10;;;;;;;8.84;81.02;98512.69;5083728;28;20714;-70
2021/05/05 10:42:55;;;;;;;4.27;1.07;;;;;;;8.81;81.28;98518.31;5086884;28;20208;-69
2021/05/05 10:45:30;;;;;;;2.00;1.30;;;;;;;8.71;81.73;98518.38;5073441;28;20200;-70
2021/05/05 10:48:07;;;;;;;2.27;1.10;;;;;;;8.65;81.57;98516.28;5071983;28;20604;-70
2021/05/05 10:50:59;;;;;;;2.10;0.97;;;;;;;8.65;81.34;98522.50;5078160;28;20535;-70
2021/05/05 10:53:28;;;;;;;0.97;0.97;;;;;;;8.58;81.34;98532.09;5075443;28;20221;-70
2021/05/05 10:55:58;;;;;;;2.93;1.13;;;;;;;8.60;81.00;98524.78;5072269;28;20207;-71
2021/05/05 10:58:27;;;;;;;0.90;0.90;;;;;;;8.59;81.37;98525.75;5071179;28;20228;-71
2021/05/05 11:00:57;;;;;;;3.90;1.00;;;;;;;8.58;80.89;98533.94;5083978;28;20221;-71
2021/05/05 11:04:03;;;;;;;1.73;1.10;;;;;;;8.55;81.53;98536.88;5069404;28;20199;-71
2021/05/05 11:06:48;;;;;;;1.37;1.23;;;;;;;8.54;81.46;98527.16;5080275;28;20198;-71
2021/05/05 11:09:42;;;;;;;1.43;0.90;;;;;;;8.63;81.47;98529.81;5078591;28;20239;-71
2021/05/05 11:12:37;;;;;;;5.30;1.43;;;;;;;8.55;81.35;98534.19;5082324;28;20565;-71
2021/05/05 11:15:06;;;;;;;6.33;1.30;;;;;;;8.66;83.06;98532.19;5074511;28;20207;-71
2021/05/05 11:17:33;;;;;;;1.33;1.13;;;;;;;8.62;83.43;98544.19;5076995;28;20203;-72
2021/05/05 11:20:00;;;;;;;1.43;1.30;;;;;;;8.49;83.52;98546.31;5076833;28;20220;-71
2021/05/05 11:22:44;;;;;;;1.00;1.00;;;;;;;8.33;84.01;98552.28;5074326;28;20214;-71
2021/05/05 11:25:25;;;;;;;1.23;1.13;;;;;;;8.29;83.94;98553.53;5085954;28;20190;-71
2021/05/05 11:27:58;;;;;;;1.43;1.10;;;;;;;7.96;83.79;98548.63;5072921;28;20703;-71
2021/05/05 11:30:39;;;;;;;1.30;1.20;;;;;;;7.62;84.38;98524.16;5073812;28;20206;-71
2021/05/05 11:33:08;;;;;;;1.10;1.00;;;;;;;7.48;85.00;98544.97;5077421;28;20199;-71
2021/05/05 11:35:37;;;;;;;2.63;1.20;;;;;;;7.56;84.92;98562.13;5085442;28;20237;-71
2021/05/05 11:38:19;;;;;;;2.10;0.93;;;;;;;7.52;85.21;98558.91;5080581;28;20274;-71
2021/05/05 11:40:59;;;;;;;1.10;1.00;;;;;;;7.23;85.93;98533.97;5075451;28;20585;-71
2021/05/05 11:43:28;;;;;;;0.83;0.83;;;;;;;7.34;85.92;98544.53;5079605;28;20672;-71
2021/05/05 11:46:00;;;;;;;0.80;0.80;;;;;;;7.31;85.66;98563.50;5076246;28;20210;-71
2021/05/05 11:48:37;;;;;;;0.60;0.60;;;;;;;7.23;86.02;98564.19;5073004;28;20679;-71
2021/05/05 11:51:32;;;;;;;1.10;0.60;;;;;;;7.31;85.95;98576.84;5073305;28;20279;-71
2021/05/05 11:54:11;;;;;;;0.77;0.77;;;;;;;7.21;85.78;98570.63;5045931;28;20202;-71
2021/05/05 11:56:40;;;;;;;1.40;0.60;;;;;;;7.12;85.52;98577.66;5076803;28;20278;-71
2021/05/05 11:59:08;;;;;;;0.77;0.70;;;;;;;7.04;86.54;98569.44;5080921;28;20216;-71
2021/05/05 12:01:37;;;;;;;0.83;0.70;;;;;;;7.05;86.32;98574.69;5074404;28;20232;-71